CheckWX is a tool to help pilots better visualize weather data.  It is not intended as a substitute for an official pre-flight weather briefing.

04:19:50 UTC

DTTG METAR
Gabès Matmata International Airport
Gabès, Tunisia
Current

1 hour ago

DTTG 180300Z 21006KT 8000 NSC 05/04 Q1026 NOSIG
Observed
Feb-18 @ 03:00 UTC
Wind
  • 210° at 6 KTS
Visibility
8,000 meters
Flight Rules
MVFR
Cloud Levels
  • Clear skies
Temperature
C / 41°F
Dewpoint
C / 39°F
Humidity
93%
Altimeter
30.3" Hg
Pressure
1025.92 hPa
Previous

2 hours ago

DTTG 180200Z 20005KT 8000 NSC 05/04 Q1026 NOSIG
Observed
Feb-18 @ 02:00 UTC
Wind
  • 200° at 5 KTS
Visibility
8,000 meters
Flight Rules
MVFR
Cloud Levels
  • Clear skies
Temperature
C / 41°F
Dewpoint
C / 39°F
Humidity
93%
Altimeter
30.3" Hg
Pressure
1025.92 hPa
Previous

3 hours ago

DTTG 180100Z 22004KT 190V250 8000 NSC 05/04 Q1026 NOSIG
Observed
Feb-18 @ 01:00 UTC
Wind
  • 220° at 4 KTS
Visibility
8,000 meters
Flight Rules
MVFR
Cloud Levels
  • Clear skies
Temperature
C / 41°F
Dewpoint
C / 39°F
Humidity
93%
Altimeter
30.3" Hg
Pressure
1025.92 hPa